Квебекский Bombardier не перепрыгнул сугроб

Bombardier Q100 авиакомпании Air Creebec (YN) при взлёте из регионального аэропорта на западе провинции Квебек задел шасси сугроб и упал в снег.

Инцидент произошёл в 21:37 по местному времени 23 января, на борту было 6 пассажиров и 3 члена экипажа.

de Havilland Canada DHC-8-100 (Bombardier Q100) под регистрационным номером C-GTCO* выполнял рейс YN926 из Руэна-Норанды (YUY) в Монреаль (YUL). Разгоняясь для взлёта с ВПП 26, левым основным шасси самолёт задел «борт» из убранного снега, потерял управляемость, съехал влево и остановился снежном поле с южной стороны от полосы.

После эвакуации один человек заявил о лёгких повреждениях.

Авиалайнер был отбуксирован на стоянку, ущерб его состоянию пока не публиковался.

Air Creebec — региональная авиакомпания провинции Квебек. Оперирует парком из 16 однотипных самолётов (37-местные Bombardeir Q100 и 50-местные Q300) средним возрастом 28,5 лет. Пострадавшему в инциденте лайнеру — 30,4 года.

Провинциальные власти объявили причиной инцидента погодные условия; канадское Бюро по расследованию происшествий на транспорте начало собственное расследование.

Показания METAR:

CYUY 240254Z 03005KT 3/4SM -SN VV013 M10/M11 A2955 RMK SN8 SLP030=
CYUY 240247Z 02006KT 2SM -SN VV013 M10/M11 A2954 RMK SN8 SLP029=
CYUY 240203Z 03006KT 3SM -SN BKN038 OVC068 M10/M11 A2955 RMK SN3SC3AC2 SLP030=
CYUY 240200Z 03005KT 2 1/4SM -SN OVC038 M10/M11 A2955 RMK SN5SC3 /S01/ SLP031=

*для иллюстрации использовано фото другого аналогичного самолёта Air Creebec